Terminal Aerodrome Forecast
Issued by NWS

Home | Current Version | Previous Version | Text Only | Print | Product List | Glossary On
Versions: 1 2 3 4 5 6 7 8 9 10 11 12 13 14
000
FTUS46 KSGX 171139
TAFSNA
TAF
KSNA 171139Z 1712/1812 VRB05KT P6SM SKC WS010/05035KT
     FM171500 05015G25KT P6SM SKC
     FM172000 06010G18KT P6SM SKC
     FM180200 VRB05KT P6SM SKC WS010/07025KT
     FM181000 VRB05KT P6SM SKC=

USA.gov is the U.S. government's official web portal to all federal, state and local government web resources and services.